createdAt,value
2022-10-18T00:00:52.536Z,14.6
2022-10-18T00:03:25.319Z,14.5
2022-10-18T00:05:58.234Z,14.5
2022-10-18T00:08:29.749Z,14.5
2022-10-18T00:11:00.526Z,14.4
2022-10-18T00:13:36.151Z,14.5
2022-10-18T00:16:06.943Z,14.5
2022-10-18T00:18:38.297Z,14.4
2022-10-18T00:21:09.747Z,14.5
2022-10-18T00:23:40.720Z,14.5
2022-10-18T00:26:12.680Z,14.5
2022-10-18T00:28:44.534Z,14.4
2022-10-18T00:31:15.541Z,14.4
2022-10-18T00:33:52.611Z,14.4
2022-10-18T00:36:24.240Z,14.4
2022-10-18T00:38:55.458Z,14.4
2022-10-18T00:44:09.123Z,14.4
2022-10-18T00:46:38.818Z,14.4
2022-10-18T00:49:10.030Z,14.4
2022-10-18T00:51:40.918Z,14.4
2022-10-18T00:54:11.606Z,14.4
2022-10-18T00:56:42.884Z,14.4
2022-10-18T00:59:13.575Z,14.3
2022-10-18T01:01:44.830Z,14.3
2022-10-18T01:04:15.846Z,14.3
2022-10-18T01:06:48.022Z,14.3
2022-10-18T01:09:19.831Z,14.3
2022-10-18T01:11:51.445Z,14.4
2022-10-18T01:14:22.723Z,14.5
2022-10-18T01:16:52.444Z,14.5
2022-10-18T01:19:23.653Z,14.4
2022-10-18T01:21:55.424Z,14.3
2022-10-18T01:24:27.078Z,14.3
2022-10-18T01:26:56.920Z,14.3
2022-10-18T01:29:28.173Z,14.3
2022-10-18T01:32:01.600Z,14.2
2022-10-18T01:34:33.146Z,14.3
2022-10-18T01:37:04.032Z,14.3
2022-10-18T01:39:35.688Z,14.3
2022-10-18T01:42:06.504Z,14.3
2022-10-18T01:44:37.287Z,14.2
2022-10-18T01:47:08.458Z,14.3
2022-10-18T01:49:39.987Z,14.2
2022-10-18T01:52:11.947Z,14.2
2022-10-18T01:54:43.693Z,14.2
2022-10-18T01:57:14.388Z,14.2
2022-10-18T01:59:45.654Z,14.2
2022-10-18T02:02:16.919Z,14.2
2022-10-18T02:04:47.589Z,14.2
2022-10-18T02:07:24.669Z,14.2
2022-10-18T02:09:56.907Z,14.3
2022-10-18T02:12:28.455Z,14.3
2022-10-18T02:14:59.286Z,14.3
2022-10-18T02:17:30.300Z,14.3
2022-10-18T02:20:01.494Z,14.4
2022-10-18T02:22:36.379Z,14.4
2022-10-18T02:25:07.897Z,14.4
2022-10-18T02:27:38.975Z,14.4
2022-10-18T02:30:08.416Z,14.4
2022-10-18T02:32:39.481Z,14.4
2022-10-18T02:35:10.418Z,14.5
2022-10-18T02:37:41.420Z,14.5
2022-10-18T02:40:13.180Z,14.5
2022-10-18T02:42:44.864Z,14.6
2022-10-18T02:45:22.961Z,14.5
2022-10-18T02:47:54.330Z,14.5
2022-10-18T02:50:28.103Z,14.3
2022-10-18T02:52:59.410Z,14.2
2022-10-18T02:55:30.429Z,14.2
2022-10-18T02:58:01.681Z,14.1
2022-10-18T03:00:32.604Z,14.2
2022-10-18T03:03:03.208Z,14
2022-10-18T03:05:34.557Z,14
2022-10-18T03:08:06.205Z,13.9
2022-10-18T03:10:39.414Z,14.1
2022-10-18T03:13:10.546Z,14.1
2022-10-18T03:15:43.367Z,14.1
2022-10-18T03:18:15.144Z,14.2
2022-10-18T03:20:47.261Z,14.2
2022-10-18T03:23:18.379Z,14.2
2022-10-18T03:25:51.184Z,14.2
2022-10-18T03:28:22.086Z,14.3
2022-10-18T03:30:53.488Z,14.2
2022-10-18T03:33:24.370Z,14.2
2022-10-18T03:35:56.557Z,14.1
2022-10-18T03:38:33.437Z,14.2
2022-10-18T03:41:05.410Z,14.3
2022-10-18T03:43:36.675Z,14.2
2022-10-18T03:46:07.716Z,14.2
2022-10-18T03:48:39.001Z,14.1
2022-10-18T03:51:09.933Z,14.2
2022-10-18T03:53:41.629Z,14.2
2022-10-18T03:56:22.687Z,14.1
2022-10-18T03:58:54.073Z,14.2
2022-10-18T04:01:25.194Z,14
2022-10-18T04:03:56.381Z,13.9
2022-10-18T04:06:27.551Z,14
2022-10-18T04:09:00.180Z,14
2022-10-18T04:11:30.898Z,14.1
2022-10-18T04:14:01.698Z,14.2
2022-10-18T04:16:32.899Z,14.2
2022-10-18T04:19:04.181Z,14.3
2022-10-18T04:21:35.089Z,14.2
2022-10-18T04:24:06.496Z,14.3
2022-10-18T04:26:36.989Z,14.3
2022-10-18T04:29:08.253Z,14.3
2022-10-18T04:31:40.059Z,14.4
2022-10-18T04:34:11.208Z,14.4
2022-10-18T04:36:42.411Z,14.4
2022-10-18T04:39:13.682Z,14.4
2022-10-18T04:41:45.280Z,14.5
2022-10-18T04:44:16.380Z,14.5
2022-10-18T04:46:46.849Z,14.5
2022-10-18T04:49:17.234Z,14.6
2022-10-18T04:51:49.067Z,14.6
2022-10-18T04:54:21.834Z,14.6
2022-10-18T04:56:52.964Z,14.6
2022-10-18T04:59:23.734Z,14.7
2022-10-18T05:04:34.496Z,14.7
2022-10-18T05:07:05.606Z,14.7
2022-10-18T05:09:36.848Z,14.8
2022-10-18T05:12:11.153Z,14.7
2022-10-18T05:14:44.004Z,14.7
2022-10-18T05:17:15.902Z,14.8
2022-10-18T05:19:45.406Z,14.8
2022-10-18T05:22:16.883Z,14.8
2022-10-18T05:24:47.486Z,14.9
2022-10-18T05:27:18.238Z,14.9
2022-10-18T05:29:49.782Z,14.9
2022-10-18T05:32:22.751Z,15
2022-10-18T05:34:51.962Z,15
2022-10-18T05:37:26.107Z,15.1
2022-10-18T05:39:53.944Z,15.2
2022-10-18T05:42:25.621Z,15.2
2022-10-18T05:44:58.178Z,15.3
2022-10-18T05:47:29.382Z,15.4
2022-10-18T05:50:03.583Z,15.4
2022-10-18T05:52:34.430Z,15.5
2022-10-18T05:55:08.002Z,15.6
2022-10-18T05:57:39.260Z,15.7
2022-10-18T06:00:12.282Z,15.8
2022-10-18T06:02:44.210Z,15.8
2022-10-18T06:05:14.802Z,15.9
2022-10-18T06:07:46.320Z,15.9
2022-10-18T06:10:16.949Z,15.9
2022-10-18T06:12:47.466Z,15.9
2022-10-18T06:15:17.998Z,16
2022-10-18T06:17:49.186Z,16
2022-10-18T06:20:20.038Z,16.2
2022-10-18T06:22:51.031Z,16.2
2022-10-18T06:25:23.797Z,16.3
2022-10-18T06:27:54.907Z,16.3
2022-10-18T06:30:25.949Z,16.5
2022-10-18T06:32:56.994Z,16.5
2022-10-18T06:35:28.832Z,16.6
2022-10-18T06:38:00.184Z,16.7
2022-10-18T06:40:31.106Z,16.8
2022-10-18T06:43:16.482Z,16.8
2022-10-18T06:45:32.860Z,16.8
2022-10-18T06:50:40.628Z,16.9
2022-10-18T06:53:11.008Z,17
2022-10-18T06:55:41.892Z,17
2022-10-18T06:58:13.409Z,17.2
2022-10-18T07:00:49.560Z,17.3
2022-10-18T07:03:22.006Z,17.3
2022-10-18T07:05:52.555Z,17.4
2022-10-18T07:08:23.229Z,17.3
2022-10-18T07:10:53.867Z,17.2
2022-10-18T07:13:38.830Z,17.4
2022-10-18T07:15:53.227Z,17.6
2022-10-18T07:18:24.099Z,17.7
2022-10-18T07:21:00.099Z,17.8
2022-10-18T07:23:31.252Z,17.9
2022-10-18T07:26:00.604Z,18.1
2022-10-18T07:28:32.920Z,18.2
2022-10-18T07:31:05.955Z,18.2
2022-10-18T07:33:35.333Z,18.2
2022-10-18T07:36:05.860Z,18.4
2022-10-18T07:38:36.065Z,18.4
2022-10-18T07:41:09.320Z,18.4
2022-10-18T07:43:39.919Z,18.4
2022-10-18T07:46:10.940Z,18.4
2022-10-18T07:48:41.387Z,18.6
2022-10-18T07:51:13.953Z,18.6
2022-10-18T07:53:45.248Z,18.5
2022-10-18T07:56:15.966Z,18.6
2022-10-18T07:58:48.320Z,18.5
2022-10-18T08:01:19.053Z,18.6
2022-10-18T08:03:49.507Z,18.7
2022-10-18T08:06:20.048Z,18.8
2022-10-18T08:08:50.429Z,18.9
2022-10-18T08:11:22.107Z,19
2022-10-18T08:13:53.633Z,19.1
2022-10-18T08:16:24.276Z,19.2
2022-10-18T08:18:54.601Z,19.2
2022-10-18T08:21:25.393Z,19.4
2022-10-18T08:23:55.979Z,19.5
2022-10-18T08:26:27.506Z,19.5
2022-10-18T08:29:17.849Z,19.5
2022-10-18T08:31:34.560Z,19.6
2022-10-18T08:34:05.200Z,19.6
2022-10-18T08:36:36.325Z,19.6
2022-10-18T08:39:06.788Z,19.6
2022-10-18T08:41:37.228Z,19.7
2022-10-18T08:44:07.801Z,19.8
2022-10-18T08:46:38.879Z,19.7
2022-10-18T08:49:09.540Z,19.8
2022-10-18T08:51:40.252Z,19.9
2022-10-18T08:54:17.872Z,20
2022-10-18T08:56:47.943Z,20.1
2022-10-18T08:59:23.259Z,20.1
2022-10-18T09:01:51.547Z,20.3
2022-10-18T09:04:22.180Z,20.3
2022-10-18T09:06:52.927Z,20.4
2022-10-18T09:09:23.671Z,20.4
2022-10-18T09:11:58.003Z,20.4
2022-10-18T09:14:28.026Z,20.5
2022-10-18T09:16:59.243Z,20.6
2022-10-18T09:19:29.713Z,20.6
2022-10-18T09:22:00.373Z,20.7
2022-10-18T09:24:30.801Z,20.5
2022-10-18T09:27:01.691Z,20.6
2022-10-18T09:29:32.631Z,20.6
2022-10-18T09:32:05.480Z,20.7
2022-10-18T09:34:36.315Z,20.9
2022-10-18T09:37:07.474Z,20.7
2022-10-18T09:39:39.364Z,20.9
2022-10-18T09:42:10.163Z,20.9
2022-10-18T09:44:41.932Z,21
2022-10-18T09:47:16.797Z,21.2
2022-10-18T09:49:46.800Z,21.3
2022-10-18T09:52:19.697Z,21.4
2022-10-18T09:54:50.224Z,21.4
2022-10-18T09:57:19.338Z,21.4
2022-10-18T09:59:52.256Z,21.4
2022-10-18T10:02:21.243Z,21.3
2022-10-18T10:04:52.964Z,21.5
2022-10-18T10:07:22.464Z,21.5
2022-10-18T10:09:53.141Z,21.5
2022-10-18T10:12:23.836Z,21.5
2022-10-18T10:14:54.724Z,21.5
2022-10-18T10:17:25.466Z,21.6
2022-10-18T10:20:01.343Z,21.6
2022-10-18T10:22:31.318Z,21.7
2022-10-18T10:25:02.313Z,21.9
2022-10-18T10:27:34.363Z,21.9
2022-10-18T10:30:06.696Z,22
2022-10-18T10:32:35.002Z,22
2022-10-18T10:35:06.554Z,22.2
2022-10-18T10:37:37.232Z,22.2
2022-10-18T10:40:27.762Z,22.3
2022-10-18T10:42:39.957Z,22.4
2022-10-18T10:45:09.101Z,22.5
2022-10-18T10:47:39.541Z,22.5
2022-10-18T10:50:08.810Z,22.5
2022-10-18T10:52:40.198Z,22.6
2022-10-18T10:55:30.662Z,22.5
2022-10-18T10:57:41.720Z,22.6
2022-10-18T11:00:14.247Z,22.5
2022-10-18T11:02:51.151Z,22.6
2022-10-18T11:05:15.226Z,22.6
2022-10-18T11:07:45.875Z,22.6
2022-10-18T11:10:16.291Z,22.7
2022-10-18T11:12:46.808Z,22.6
2022-10-18T11:15:17.633Z,22.7
2022-10-18T11:17:46.588Z,22.8
2022-10-18T11:20:16.935Z,22.8
2022-10-18T11:22:53.835Z,22.9
2022-10-18T11:25:24.447Z,22.9
2022-10-18T11:27:54.583Z,22.9
2022-10-18T11:30:25.028Z,23
2022-10-18T11:32:56.767Z,23.1
2022-10-18T11:35:27.392Z,23.1
2022-10-18T11:37:56.560Z,23.2
2022-10-18T11:40:27.190Z,23.4
2022-10-18T11:42:58.562Z,23.4
2022-10-18T11:48:00.068Z,23.4
2022-10-18T11:50:30.698Z,23.5
2022-10-18T11:53:01.154Z,23.6
2022-10-18T11:55:33.039Z,23.6
2022-10-18T11:58:04.625Z,23.6
2022-10-18T12:00:35.245Z,23.7
2022-10-18T12:03:05.904Z,23.6
2022-10-18T12:05:37.059Z,23.6
2022-10-18T12:08:07.798Z,23.7
2022-10-18T12:10:45.930Z,23.7
2022-10-18T12:13:09.185Z,23.8
2022-10-18T12:15:39.733Z,23.7
2022-10-18T12:18:11.440Z,23.8
2022-10-18T12:20:44.582Z,23.8
2022-10-18T12:23:16.570Z,23.9
2022-10-18T12:25:59.326Z,24
2022-10-18T12:28:29.964Z,24
2022-10-18T12:31:00.666Z,24.1
2022-10-18T12:33:32.125Z,24
2022-10-18T12:36:02.709Z,24
2022-10-18T12:38:33.704Z,24.1
2022-10-18T12:41:05.561Z,24.1
2022-10-18T12:43:36.299Z,24.2
2022-10-18T12:46:12.358Z,24.2
2022-10-18T12:48:40.150Z,24.3
2022-10-18T12:51:10.368Z,24.4
2022-10-18T12:53:48.467Z,24.5
2022-10-18T12:56:21.966Z,24.7
2022-10-18T12:58:52.678Z,24.7
2022-10-18T13:01:23.389Z,24.6
2022-10-18T13:03:55.190Z,24.8
2022-10-18T13:06:26.141Z,24.9
2022-10-18T13:08:56.785Z,25
2022-10-18T13:11:33.312Z,25
2022-10-18T13:14:08.027Z,25
2022-10-18T13:16:38.615Z,24.9
2022-10-18T13:19:09.416Z,24.9
2022-10-18T13:21:41.276Z,24.7
2022-10-18T13:24:12.277Z,24.5
2022-10-18T13:26:42.655Z,24.4
2022-10-18T13:29:13.596Z,24.1
2022-10-18T13:31:47.145Z,23.9
2022-10-18T13:34:17.204Z,23.8
2022-10-18T13:36:47.831Z,23.7
2022-10-18T13:39:18.236Z,23.6
2022-10-18T13:41:53.806Z,23.6
2022-10-18T13:44:24.267Z,23.4
2022-10-18T13:46:59.443Z,23.4
2022-10-18T13:49:30.275Z,23.3
2022-10-18T13:52:01.207Z,23.2
2022-10-18T13:54:33.678Z,23.2
2022-10-18T13:57:04.322Z,23.1
2022-10-18T14:02:05.683Z,23
2022-10-18T14:04:36.250Z,23
2022-10-18T14:07:05.334Z,23
2022-10-18T14:09:45.061Z,22.9
2022-10-18T14:12:14.887Z,22.8
2022-10-18T14:14:46.244Z,22.8
2022-10-18T14:17:17.979Z,22.7
2022-10-18T14:19:52.362Z,22.7
2022-10-18T14:22:23.152Z,22.7
2022-10-18T14:24:53.727Z,22.6
2022-10-18T14:27:28.115Z,22.5
2022-10-18T14:29:59.144Z,22.6
2022-10-18T14:32:30.245Z,22.5
2022-10-18T14:35:27.515Z,22.4
2022-10-18T14:37:31.990Z,22.4
2022-10-18T14:40:03.797Z,22.4
2022-10-18T14:42:35.447Z,22.4
2022-10-18T14:45:06.785Z,22.3
2022-10-18T14:47:37.766Z,22.4
2022-10-18T14:50:19.969Z,22.3
2022-10-18T14:53:05.663Z,22.2
2022-10-18T14:55:42.165Z,22.2
2022-10-18T14:58:13.644Z,22.2
2022-10-18T15:00:51.146Z,22.1
2022-10-18T15:03:28.514Z,22
2022-10-18T15:06:00.465Z,22
2022-10-18T15:08:37.603Z,21.9
2022-10-18T15:11:13.414Z,21.9
2022-10-18T15:13:43.626Z,21.9
2022-10-18T15:18:47.854Z,21.8
2022-10-18T15:21:19.039Z,21.8
2022-10-18T15:26:28.284Z,21.6
2022-10-18T15:29:01.429Z,21.6
2022-10-18T15:31:31.314Z,21.5
2022-10-18T15:34:00.822Z,21.5
2022-10-18T15:36:30.451Z,21.4
2022-10-18T15:39:01.655Z,21.4
2022-10-18T15:41:33.002Z,21.2
2022-10-18T15:44:04.514Z,21
2022-10-18T15:46:40.122Z,21
2022-10-18T15:49:16.502Z,20.9
2022-10-18T15:51:48.194Z,20.8
2022-10-18T15:54:19.712Z,20.8
2022-10-18T15:56:51.294Z,20.6
2022-10-18T15:59:25.490Z,20.6
2022-10-18T16:01:56.516Z,20.7
2022-10-18T16:04:28.696Z,20.6
2022-10-18T16:07:05.604Z,20.5
2022-10-18T16:09:40.770Z,20.5
2022-10-18T16:12:11.933Z,20.4
2022-10-18T16:14:43.496Z,20.3
2022-10-18T16:17:14.790Z,20.2
2022-10-18T16:19:46.229Z,20.1
2022-10-18T16:22:17.430Z,20
2022-10-18T16:24:50.100Z,20
2022-10-18T16:27:20.794Z,19.9
2022-10-18T16:29:52.359Z,19.8
2022-10-18T16:32:25.710Z,19.7
2022-10-18T16:34:58.373Z,19.5
2022-10-18T16:37:30.722Z,19.5
2022-10-18T16:40:03.168Z,19.1
2022-10-18T16:42:35.988Z,19
2022-10-18T16:45:07.228Z,19
2022-10-18T16:47:39.264Z,19
2022-10-18T16:50:10.593Z,19
2022-10-18T16:52:41.447Z,18.9
2022-10-18T16:55:13.594Z,18.6
2022-10-18T16:57:50.253Z,18.5
2022-10-18T17:00:24.366Z,18.5
2022-10-18T17:02:56.780Z,18.5
2022-10-18T17:05:28.180Z,18.3
2022-10-18T17:08:04.364Z,18.3
2022-10-18T17:10:41.373Z,18.3
2022-10-18T17:13:13.275Z,18.2
2022-10-18T17:15:44.847Z,18.1
2022-10-18T17:18:18.041Z,18.1
2022-10-18T17:20:49.099Z,18
2022-10-18T17:23:20.327Z,17.9
2022-10-18T17:25:57.902Z,17.7
2022-10-18T17:28:23.557Z,17.7
2022-10-18T17:30:56.841Z,17.6
2022-10-18T17:33:28.409Z,17.6
2022-10-18T17:36:01.017Z,17.5
2022-10-18T17:38:31.511Z,17.5
2022-10-18T17:41:02.852Z,17.4
2022-10-18T17:43:36.093Z,17.4
2022-10-18T17:46:07.778Z,17.3
2022-10-18T17:51:14.302Z,17.2
2022-10-18T17:53:55.475Z,17.1
2022-10-18T17:56:34.246Z,17.1
2022-10-18T17:59:05.184Z,17
2022-10-18T18:01:36.593Z,17
2022-10-18T18:04:07.759Z,16.9
2022-10-18T18:06:38.843Z,16.9
2022-10-18T18:09:10.282Z,16.9
2022-10-18T18:11:42.239Z,16.8
2022-10-18T18:14:13.891Z,16.7
2022-10-18T18:16:46.798Z,16.7
2022-10-18T18:19:17.711Z,16.6
2022-10-18T18:21:49.046Z,16.6
2022-10-18T18:24:20.588Z,16.4
2022-10-18T18:26:51.727Z,16.2
2022-10-18T18:29:22.715Z,16.2
2022-10-18T18:31:56.180Z,16.2
2022-10-18T18:34:27.822Z,16.2
2022-10-18T18:36:59.736Z,16.2
2022-10-18T18:39:31.972Z,16.2
2022-10-18T18:42:04.244Z,16.1
2022-10-18T18:44:36.066Z,16
2022-10-18T18:47:13.222Z,16
2022-10-18T18:49:47.098Z,15.8
2022-10-18T18:52:18.194Z,15.9
2022-10-18T18:54:51.626Z,15.8
2022-10-18T18:57:24.075Z,15.8
2022-10-18T18:59:58.462Z,15.8
2022-10-18T19:02:30.073Z,15.8
2022-10-18T19:05:01.253Z,15.8
2022-10-18T19:07:32.939Z,15.8
2022-10-18T19:10:02.402Z,15.7
2022-10-18T19:12:34.342Z,15.6
2022-10-18T19:15:05.759Z,15.7
2022-10-18T19:17:38.688Z,15.6
2022-10-18T19:20:10.000Z,15.6
2022-10-18T19:22:40.897Z,15.6
2022-10-18T19:25:11.658Z,15.6
2022-10-18T19:27:52.697Z,15.5
2022-10-18T19:30:25.493Z,15.6
2022-10-18T19:32:59.803Z,15.5
2022-10-18T19:35:29.620Z,15.5
2022-10-18T19:38:02.136Z,15.4
2022-10-18T19:40:35.288Z,15.3
2022-10-18T19:43:04.808Z,15.3
2022-10-18T19:45:38.195Z,15.2
2022-10-18T19:48:12.412Z,15.1
2022-10-18T19:50:41.156Z,15.1
2022-10-18T19:53:12.616Z,15.1
2022-10-18T19:55:44.219Z,15.1
2022-10-18T19:58:15.869Z,15.1
2022-10-18T20:00:52.452Z,15.1
2022-10-18T20:03:23.748Z,15.2
2022-10-18T20:05:57.390Z,15.1
2022-10-18T20:08:33.856Z,15.2
2022-10-18T20:11:11.081Z,15.1
2022-10-18T20:13:42.996Z,15
2022-10-18T20:16:14.678Z,15.1
2022-10-18T20:18:46.072Z,15.1
2022-10-18T20:21:16.635Z,15.1
2022-10-18T20:23:47.942Z,15
2022-10-18T20:26:20.408Z,14.9
2022-10-18T20:28:51.263Z,15
2022-10-18T20:31:24.307Z,14.9
2022-10-18T20:33:56.583Z,14.8
2022-10-18T20:36:28.418Z,14.7
2022-10-18T20:38:59.782Z,14.7
2022-10-18T20:41:31.476Z,14.7
2022-10-18T20:44:06.458Z,14.6
2022-10-18T20:46:38.665Z,14.6
2022-10-18T20:49:10.249Z,14.5
2022-10-18T20:51:41.457Z,14.5
2022-10-18T20:54:14.326Z,14.4
2022-10-18T20:56:45.908Z,14.5
2022-10-18T20:59:17.011Z,14.4
2022-10-18T21:01:51.021Z,14.3
2022-10-18T21:04:22.433Z,14.3
2022-10-18T21:06:53.981Z,14.3
2022-10-18T21:09:24.235Z,14.2
2022-10-18T21:11:56.385Z,14.3
2022-10-18T21:14:27.491Z,14.1
2022-10-18T21:16:59.761Z,14.1
2022-10-18T21:19:32.962Z,14
2022-10-18T21:22:04.917Z,13.9
2022-10-18T21:24:36.094Z,13.9
2022-10-18T21:27:07.164Z,13.9
2022-10-18T21:29:38.965Z,13.8
2022-10-18T21:32:09.068Z,13.9
2022-10-18T21:34:40.712Z,13.8
2022-10-18T21:37:13.207Z,13.8
2022-10-18T21:39:44.305Z,13.7
2022-10-18T21:42:18.127Z,13.6
2022-10-18T21:44:50.242Z,13.6
2022-10-18T21:47:22.546Z,13.4
2022-10-18T21:49:55.166Z,13.4
2022-10-18T21:52:28.522Z,13.4
2022-10-18T21:54:59.618Z,13.4
2022-10-18T21:57:32.203Z,13.3
2022-10-18T22:00:09.546Z,13.2
2022-10-18T22:02:41.736Z,13.2
2022-10-18T22:05:13.671Z,13.1
2022-10-18T22:07:44.994Z,13.2
2022-10-18T22:10:16.828Z,13
2022-10-18T22:12:48.220Z,13
2022-10-18T22:15:20.140Z,12.9
2022-10-18T22:17:50.290Z,12.8
2022-10-18T22:20:21.418Z,12.7
2022-10-18T22:22:51.777Z,12.7
2022-10-18T22:25:22.510Z,12.7
2022-10-18T22:27:52.976Z,12.8
2022-10-18T22:30:25.563Z,12.9
2022-10-18T22:32:56.288Z,12.9
2022-10-18T22:35:27.010Z,12.8
2022-10-18T22:37:58.456Z,12.7
2022-10-18T22:40:31.522Z,12.7
2022-10-18T22:43:02.050Z,12.6
2022-10-18T22:45:32.583Z,12.6
2022-10-18T22:48:04.009Z,12.4
2022-10-18T22:50:34.826Z,12.4
2022-10-18T22:53:05.540Z,12.4
2022-10-18T22:55:36.416Z,12.3
2022-10-18T22:58:13.521Z,12
2022-10-18T23:00:44.517Z,11.9
2022-10-18T23:03:14.962Z,11.7
2022-10-18T23:05:46.221Z,11.7
2022-10-18T23:08:18.895Z,11.8
2022-10-18T23:10:50.141Z,11.8
2022-10-18T23:13:20.874Z,11.8
2022-10-18T23:15:51.812Z,11.8
2022-10-18T23:18:22.726Z,11.7
2022-10-18T23:20:55.329Z,11.7
2022-10-18T23:23:25.925Z,11.8
2022-10-18T23:26:01.188Z,11.7
2022-10-18T23:28:33.318Z,11.7
2022-10-18T23:31:04.000Z,11.7
2022-10-18T23:33:34.214Z,11.6
2022-10-18T23:36:08.185Z,11.6
2022-10-18T23:38:37.987Z,11.6
2022-10-18T23:41:09.873Z,11.6
2022-10-18T23:43:40.774Z,11.6
2022-10-18T23:46:11.510Z,11.4
2022-10-18T23:48:46.583Z,11.5
2022-10-18T23:51:17.361Z,11.5
2022-10-18T23:53:48.504Z,11.5
2022-10-18T23:56:19.816Z,11.4
2022-10-18T23:58:50.831Z,11.3
